createdAt,value
2018-10-07T00:00:23.946Z,940.98
2018-10-07T00:01:23.847Z,941.01
2018-10-07T00:02:23.775Z,941.00
2018-10-07T00:03:23.660Z,941.01
2018-10-07T00:04:23.573Z,940.97
2018-10-07T00:05:23.481Z,940.95
2018-10-07T00:06:23.381Z,941.02
2018-10-07T00:07:23.304Z,940.98
2018-10-07T00:08:23.200Z,940.98
2018-10-07T00:09:23.103Z,940.98
2018-10-07T00:10:23.010Z,940.94
2018-10-07T00:11:22.917Z,940.95
2018-10-07T00:12:22.839Z,940.96
2018-10-07T00:13:22.729Z,940.96
2018-10-07T00:14:22.632Z,940.91
2018-10-07T00:15:22.539Z,940.99
2018-10-07T00:16:22.448Z,940.95
2018-10-07T00:17:22.372Z,940.96
2018-10-07T00:18:22.262Z,940.94
2018-10-07T00:19:22.167Z,940.94
2018-10-07T00:20:22.072Z,940.92
2018-10-07T00:21:21.983Z,940.91
2018-10-07T00:22:21.901Z,940.87
2018-10-07T00:23:21.793Z,940.83
2018-10-07T00:24:21.700Z,940.88
2018-10-07T00:25:21.608Z,940.83
2018-10-07T00:26:21.518Z,940.87
2018-10-07T00:27:21.438Z,940.81
2018-10-07T00:28:21.329Z,940.84
2018-10-07T00:29:21.237Z,940.85
2018-10-07T00:30:21.137Z,940.83
2018-10-07T00:31:21.047Z,940.85
2018-10-07T00:32:20.956Z,940.86
2018-10-07T00:33:20.880Z,940.83
2018-10-07T00:34:20.764Z,940.82
2018-10-07T00:35:20.674Z,940.87
2018-10-07T00:36:20.683Z,940.84
2018-10-07T00:37:20.490Z,940.83
2018-10-07T00:38:20.407Z,940.86
2018-10-07T00:39:20.301Z,940.78
2018-10-07T00:40:20.205Z,940.77
2018-10-07T00:41:20.116Z,940.80
2018-10-07T00:42:20.020Z,940.78
2018-10-07T00:43:20.050Z,940.72
2018-10-07T00:44:19.829Z,940.79
2018-10-07T00:45:19.743Z,940.77
2018-10-07T00:46:19.645Z,940.78
2018-10-07T00:47:19.553Z,940.81
2018-10-07T00:48:19.478Z,940.81
2018-10-07T00:49:19.369Z,940.83
2018-10-07T00:50:19.395Z,940.82
2018-10-07T00:51:19.176Z,940.79
2018-10-07T00:52:19.091Z,940.79
2018-10-07T00:53:19.017Z,940.80
2018-10-07T00:54:18.901Z,940.78
2018-10-07T00:55:18.808Z,940.83
2018-10-07T00:56:18.714Z,940.85
2018-10-07T00:57:18.720Z,940.84
2018-10-07T00:58:18.541Z,940.82
2018-10-07T00:59:18.431Z,940.83
2018-10-07T01:00:18.337Z,940.82
2018-10-07T01:01:18.245Z,940.82
2018-10-07T01:02:18.152Z,940.85
2018-10-07T01:03:18.077Z,940.83
2018-10-07T01:04:18.073Z,940.78
2018-10-07T01:05:17.874Z,940.80
2018-10-07T01:06:17.777Z,940.84
2018-10-07T01:07:17.684Z,940.82
2018-10-07T01:08:17.610Z,940.84
2018-10-07T01:09:17.499Z,940.79
2018-10-07T01:10:17.406Z,940.84
2018-10-07T01:11:17.416Z,940.77
2018-10-07T01:12:17.218Z,940.82
2018-10-07T01:13:17.140Z,940.83
2018-10-07T01:14:17.035Z,940.81
2018-10-07T01:15:16.933Z,940.82
2018-10-07T01:16:16.847Z,940.80
2018-10-07T01:17:16.751Z,940.76
2018-10-07T01:18:16.772Z,940.81
2018-10-07T01:19:16.561Z,940.75
2018-10-07T01:20:16.467Z,940.78
2018-10-07T01:21:16.375Z,940.80
2018-10-07T01:22:16.281Z,940.82
2018-10-07T01:23:16.203Z,940.78
2018-10-07T01:24:16.096Z,940.78
2018-10-07T01:25:16.101Z,940.73
2018-10-07T01:26:15.908Z,940.76
2018-10-07T01:27:15.809Z,940.81
2018-10-07T01:28:15.738Z,940.83
2018-10-07T01:29:15.630Z,940.80
2018-10-07T01:30:15.533Z,940.86
2018-10-07T01:31:15.441Z,940.78
2018-10-07T01:32:15.450Z,940.84
2018-10-07T01:33:15.268Z,940.80
2018-10-07T01:34:15.154Z,940.83
2018-10-07T01:35:15.061Z,940.77
2018-10-07T01:36:14.970Z,940.79
2018-10-07T01:37:14.877Z,940.80
2018-10-07T01:38:14.801Z,940.82
2018-10-07T01:39:14.797Z,940.85
2018-10-07T01:40:14.594Z,940.84
2018-10-07T01:41:14.502Z,940.83
2018-10-07T01:42:14.409Z,940.81
2018-10-07T01:43:14.335Z,940.86
2018-10-07T01:44:14.217Z,940.85
2018-10-07T01:45:14.124Z,940.86
2018-10-07T01:46:14.031Z,940.85
2018-10-07T01:47:13.938Z,940.85
2018-10-07T01:48:13.862Z,940.84
2018-10-07T01:49:13.748Z,940.83
2018-10-07T01:50:13.660Z,940.83
2018-10-07T01:51:13.565Z,940.88
2018-10-07T01:52:13.473Z,940.87
2018-10-07T01:53:13.392Z,940.88
2018-10-07T01:54:13.282Z,940.87
2018-10-07T01:55:13.186Z,940.91
2018-10-07T01:56:13.093Z,940.90
2018-10-07T01:57:13.002Z,940.94
2018-10-07T01:58:12.926Z,940.93
2018-10-07T01:59:12.841Z,940.95
2018-10-07T02:00:12.720Z,940.93
2018-10-07T02:01:12.626Z,940.96
2018-10-07T02:02:12.532Z,940.94
2018-10-07T02:03:12.453Z,940.94
2018-10-07T02:04:12.345Z,940.90
2018-10-07T02:05:12.320Z,940.89
2018-10-07T02:06:12.160Z,940.91
2018-10-07T02:07:12.065Z,940.91
2018-10-07T02:08:11.983Z,940.92
2018-10-07T02:09:11.872Z,940.91
2018-10-07T02:10:11.784Z,940.91
2018-10-07T02:11:11.689Z,940.99
2018-10-07T02:12:11.592Z,940.98
2018-10-07T02:13:11.518Z,941.00
2018-10-07T02:14:11.407Z,940.97
2018-10-07T02:15:11.315Z,940.99
2018-10-07T02:16:11.220Z,941.02
2018-10-07T02:17:11.133Z,940.97
2018-10-07T02:18:11.034Z,941.03
2018-10-07T02:19:10.955Z,941.01
2018-10-07T02:20:10.860Z,941.04
2018-10-07T02:21:10.752Z,941.02
2018-10-07T02:22:10.964Z,941.03
2018-10-07T02:23:10.562Z,941.00
2018-10-07T02:24:10.485Z,940.99
2018-10-07T02:25:10.374Z,941.00
2018-10-07T02:26:10.282Z,940.98
2018-10-07T02:27:10.186Z,940.94
2018-10-07T02:28:10.094Z,940.92
2018-10-07T02:29:10.019Z,940.94
2018-10-07T02:30:09.902Z,940.96
2018-10-07T02:31:09.811Z,940.91
2018-10-07T02:32:09.715Z,940.93
2018-10-07T02:33:09.630Z,940.89
2018-10-07T02:34:09.542Z,940.94
2018-10-07T02:35:09.433Z,940.93
2018-10-07T02:36:09.339Z,940.93
2018-10-07T02:37:09.244Z,940.93
2018-10-07T02:38:09.157Z,940.92
2018-10-07T02:39:09.068Z,940.94
2018-10-07T02:40:08.974Z,940.94
2018-10-07T02:41:08.867Z,940.93
2018-10-07T02:42:08.777Z,940.92
2018-10-07T02:43:08.679Z,940.91
2018-10-07T02:44:08.602Z,940.96
2018-10-07T02:45:08.487Z,940.94
2018-10-07T02:46:08.397Z,940.95
2018-10-07T02:47:08.302Z,940.95
2018-10-07T02:48:08.205Z,940.99
2018-10-07T02:49:08.127Z,941.01
2018-10-07T02:50:08.016Z,940.99
2018-10-07T02:51:07.923Z,940.99
2018-10-07T02:52:07.828Z,941.00
2018-10-07T02:53:07.793Z,941.01
2018-10-07T02:54:07.656Z,941.02
2018-10-07T02:55:07.545Z,941.02
2018-10-07T02:56:07.449Z,940.99
2018-10-07T02:57:07.357Z,941.01
2018-10-07T02:58:07.258Z,940.98
2018-10-07T02:59:07.182Z,940.99
2018-10-07T03:00:07.076Z,940.95
2018-10-07T03:01:06.979Z,940.97
2018-10-07T03:02:06.883Z,940.98
2018-10-07T03:03:06.790Z,940.94
2018-10-07T03:04:06.721Z,940.93
2018-10-07T03:05:06.599Z,940.95
2018-10-07T03:06:06.509Z,940.91
2018-10-07T03:07:06.409Z,940.89
2018-10-07T03:08:06.314Z,940.89
2018-10-07T03:09:06.245Z,940.88
2018-10-07T03:10:06.128Z,940.88
2018-10-07T03:11:06.034Z,940.90
2018-10-07T03:12:05.936Z,940.91
2018-10-07T03:13:05.842Z,940.96
2018-10-07T03:14:05.762Z,940.99
2018-10-07T03:15:05.654Z,940.94
2018-10-07T03:16:05.560Z,940.94
2018-10-07T03:17:05.485Z,940.95
2018-10-07T03:18:05.371Z,940.95
2018-10-07T03:19:05.292Z,940.97
2018-10-07T03:20:05.180Z,940.93
2018-10-07T03:21:05.084Z,940.96
2018-10-07T03:22:04.989Z,940.94
2018-10-07T03:23:04.899Z,940.96
2018-10-07T03:24:04.818Z,940.94
2018-10-07T03:25:04.709Z,940.93
2018-10-07T03:26:04.611Z,940.92
2018-10-07T03:27:04.520Z,940.94
2018-10-07T03:28:04.424Z,940.93
2018-10-07T03:29:04.350Z,940.92
2018-10-07T03:30:04.247Z,940.94
2018-10-07T03:31:04.142Z,940.98
2018-10-07T03:32:04.046Z,940.96
2018-10-07T03:33:03.952Z,940.96
2018-10-07T03:34:03.877Z,940.99
2018-10-07T03:35:03.765Z,941.03
2018-10-07T03:36:03.670Z,940.99
2018-10-07T03:37:03.574Z,940.97
2018-10-07T03:38:03.585Z,941.01
2018-10-07T03:39:03.401Z,941.03
2018-10-07T03:40:03.300Z,940.99
2018-10-07T03:41:03.200Z,941.02
2018-10-07T03:42:03.101Z,941.00
2018-10-07T03:43:03.010Z,941.07
2018-10-07T03:44:02.930Z,941.05
2018-10-07T03:45:02.927Z,941.11
2018-10-07T03:46:02.722Z,941.09
2018-10-07T03:47:02.632Z,941.08
2018-10-07T03:48:02.542Z,941.09
2018-10-07T03:49:02.460Z,941.09
2018-10-07T03:50:02.349Z,941.08
2018-10-07T03:51:02.255Z,941.10
2018-10-07T03:52:02.260Z,941.09
2018-10-07T03:53:02.068Z,941.09
2018-10-07T03:54:01.986Z,941.12
2018-10-07T03:55:01.876Z,941.07
2018-10-07T03:56:01.784Z,941.07
2018-10-07T03:57:01.690Z,941.08
2018-10-07T03:58:01.594Z,941.08
2018-10-07T03:59:01.620Z,941.06
2018-10-07T04:00:01.404Z,941.10
2018-10-07T04:01:01.319Z,941.11
2018-10-07T04:02:01.219Z,941.14
2018-10-07T04:03:01.130Z,941.14
2018-10-07T04:04:01.050Z,941.16
2018-10-07T04:05:00.937Z,941.16
2018-10-07T04:06:00.946Z,941.21
2018-10-07T04:07:00.752Z,941.20
2018-10-07T04:08:00.654Z,941.22
2018-10-07T04:09:00.562Z,941.23
2018-10-07T04:10:00.479Z,941.24
2018-10-07T04:11:00.371Z,941.25
2018-10-07T04:12:00.276Z,941.23
2018-10-07T04:13:00.286Z,941.24
2018-10-07T04:14:00.093Z,941.20
2018-10-07T04:15:00.015Z,941.20
2018-10-07T04:15:59.902Z,941.21
2018-10-07T04:16:59.807Z,941.20
2018-10-07T04:17:59.713Z,941.23
2018-10-07T04:18:59.621Z,941.21
2018-10-07T04:19:59.632Z,941.23
2018-10-07T04:20:59.430Z,941.26
2018-10-07T04:21:59.338Z,941.25
2018-10-07T04:22:59.244Z,941.24
2018-10-07T04:23:59.153Z,941.26
2018-10-07T04:24:59.073Z,941.26
2018-10-07T04:25:58.958Z,941.30
2018-10-07T04:26:58.970Z,941.29
2018-10-07T04:27:58.771Z,941.26
2018-10-07T04:28:58.681Z,941.30
2018-10-07T04:29:58.611Z,941.32
2018-10-07T04:30:58.489Z,941.29
2018-10-07T04:31:58.396Z,941.33
2018-10-07T04:32:58.301Z,941.37
2018-10-07T04:33:58.311Z,941.36
2018-10-07T04:34:58.130Z,941.35
2018-10-07T04:35:58.019Z,941.38
2018-10-07T04:36:57.930Z,941.38
2018-10-07T04:37:57.834Z,941.31
2018-10-07T04:38:57.742Z,941.33
2018-10-07T04:39:57.741Z,941.36
2018-10-07T04:40:57.655Z,941.36
2018-10-07T04:41:57.463Z,941.36
2018-10-07T04:42:57.369Z,941.37
2018-10-07T04:43:57.268Z,941.39
2018-10-07T04:44:57.187Z,941.42
2018-10-07T04:45:57.082Z,941.42
2018-10-07T04:46:57.111Z,941.42
2018-10-07T04:47:56.895Z,941.46
2018-10-07T04:48:56.796Z,941.45
2018-10-07T04:49:56.716Z,941.47
2018-10-07T04:50:56.606Z,941.51
2018-10-07T04:51:56.514Z,941.45
2018-10-07T04:52:56.421Z,941.47
2018-10-07T04:53:56.322Z,941.54
2018-10-07T04:54:56.247Z,941.53
2018-10-07T04:55:56.137Z,941.50
2018-10-07T04:56:56.046Z,941.50
2018-10-07T04:57:55.948Z,941.53
2018-10-07T04:58:55.857Z,941.57
2018-10-07T04:59:55.775Z,941.60
2018-10-07T05:00:55.667Z,941.56
2018-10-07T05:01:55.571Z,941.60
2018-10-07T05:02:55.476Z,941.59
2018-10-07T05:03:55.381Z,941.60
2018-10-07T05:04:55.303Z,941.64
2018-10-07T05:05:55.193Z,941.60
2018-10-07T05:06:55.101Z,941.63
2018-10-07T05:07:55.004Z,941.64
2018-10-07T05:08:54.910Z,941.66
2018-10-07T05:09:54.832Z,941.64
2018-10-07T05:10:54.732Z,941.67
2018-10-07T05:11:54.681Z,941.65
2018-10-07T05:12:54.532Z,941.66
2018-10-07T05:13:54.440Z,941.63
2018-10-07T05:14:54.362Z,941.67
2018-10-07T05:15:54.250Z,941.63
2018-10-07T05:16:54.158Z,941.63
2018-10-07T05:17:54.066Z,941.67
2018-10-07T05:18:53.968Z,941.62
2018-10-07T05:19:53.895Z,941.67
2018-10-07T05:20:53.821Z,941.66
2018-10-07T05:21:53.692Z,941.66
2018-10-07T05:22:53.590Z,941.66
2018-10-07T05:23:53.498Z,941.69
2018-10-07T05:24:53.422Z,941.68
2018-10-07T05:25:53.307Z,941.71
2018-10-07T05:26:53.211Z,941.73
2018-10-07T05:27:53.117Z,941.71
2018-10-07T05:28:53.025Z,941.72
2018-10-07T05:29:52.943Z,941.74
2018-10-07T05:30:52.834Z,941.72
2018-10-07T05:31:52.744Z,941.74
2018-10-07T05:32:52.649Z,941.78
2018-10-07T05:33:52.553Z,941.80
2018-10-07T05:34:52.479Z,941.79
2018-10-07T05:35:52.361Z,941.80
2018-10-07T05:36:52.271Z,941.83
2018-10-07T05:37:52.174Z,941.86
2018-10-07T05:38:52.080Z,941.86
2018-10-07T05:39:52.002Z,941.88
2018-10-07T05:40:51.894Z,941.85
2018-10-07T05:41:51.798Z,941.90
2018-10-07T05:42:51.700Z,941.88
2018-10-07T05:43:51.607Z,941.89
2018-10-07T05:44:51.629Z,941.91
2018-10-07T05:45:51.421Z,941.91
2018-10-07T05:46:51.324Z,941.93
2018-10-07T05:47:51.227Z,941.98
2018-10-07T05:48:51.135Z,941.96
2018-10-07T05:49:51.042Z,942.01
2018-10-07T05:50:50.961Z,942.06
2018-10-07T05:51:50.850Z,942.05
2018-10-07T05:52:50.754Z,942.06
2018-10-07T05:53:50.658Z,942.05
2018-10-07T05:54:50.569Z,942.07
2018-10-07T05:55:50.533Z,942.09
2018-10-07T05:56:50.488Z,942.13
2018-10-07T05:57:50.285Z,942.13
2018-10-07T05:58:50.188Z,942.15
2018-10-07T05:59:50.097Z,942.19
2018-10-07T06:00:50.016Z,942.20
2018-10-07T06:01:49.998Z,942.24
2018-10-07T06:02:49.809Z,942.25
2018-10-07T06:03:49.714Z,942.27
2018-10-07T06:04:49.622Z,942.30
2018-10-07T06:05:49.543Z,942.31
2018-10-07T06:06:49.429Z,942.31
2018-10-07T06:07:49.337Z,942.34
2018-10-07T06:08:49.241Z,942.37
2018-10-07T06:09:49.147Z,942.38
2018-10-07T06:10:49.172Z,942.42
2018-10-07T06:11:48.957Z,942.45
2018-10-07T06:12:48.865Z,942.47
2018-10-07T06:13:48.765Z,942.49
2018-10-07T06:14:48.719Z,942.51
2018-10-07T06:15:48.592Z,942.50
2018-10-07T06:16:48.485Z,942.56
2018-10-07T06:17:48.490Z,942.60
2018-10-07T06:18:48.295Z,942.60
2018-10-07T06:19:48.213Z,942.62
2018-10-07T06:20:48.122Z,942.58
2018-10-07T06:21:48.006Z,942.61
2018-10-07T06:22:47.910Z,942.63
2018-10-07T06:23:47.822Z,942.68
2018-10-07T06:24:47.828Z,942.72
2018-10-07T06:25:47.649Z,942.76
2018-10-07T06:26:47.542Z,942.77
2018-10-07T06:27:47.447Z,942.78
2018-10-07T06:28:47.351Z,942.92
2018-10-07T06:29:47.283Z,942.95
2018-10-07T06:30:47.177Z,943.03
2018-10-07T06:31:47.187Z,943.01
2018-10-07T06:32:46.976Z,943.04
2018-10-07T06:33:46.877Z,943.07
2018-10-07T06:34:46.788Z,943.12
2018-10-07T06:35:46.705Z,943.16
2018-10-07T06:36:46.598Z,943.13
2018-10-07T06:37:46.503Z,943.16
2018-10-07T06:38:46.543Z,943.20
2018-10-07T06:39:46.324Z,943.23
2018-10-07T06:40:46.241Z,943.25
2018-10-07T06:41:46.134Z,943.23
2018-10-07T06:42:46.043Z,943.21
2018-10-07T06:43:45.952Z,943.22
2018-10-07T06:44:45.859Z,943.25
2018-10-07T06:45:45.913Z,943.24
2018-10-07T06:46:45.675Z,943.28
2018-10-07T06:47:45.582Z,943.34
2018-10-07T06:48:45.492Z,943.38
2018-10-07T06:49:45.397Z,943.34
2018-10-07T06:50:45.325Z,943.39
2018-10-07T06:51:45.332Z,943.45
2018-10-07T06:52:45.129Z,943.43
2018-10-07T06:53:45.035Z,943.48
2018-10-07T06:54:44.950Z,943.50
2018-10-07T06:55:44.873Z,943.46
2018-10-07T06:56:44.768Z,943.45
2018-10-07T06:57:44.675Z,943.59
2018-10-07T06:58:44.591Z,943.53
2018-10-07T06:59:44.542Z,943.65
2018-10-07T07:00:44.423Z,943.72
2018-10-07T07:01:44.318Z,943.71
2018-10-07T07:02:44.231Z,943.74
2018-10-07T07:03:44.143Z,943.75
2018-10-07T07:04:44.052Z,943.75
2018-10-07T07:05:44.086Z,943.72
2018-10-07T07:06:43.883Z,943.77
2018-10-07T07:07:43.792Z,943.77
2018-10-07T07:08:43.699Z,943.64
2018-10-07T07:09:43.612Z,943.75
2018-10-07T07:10:43.542Z,943.70
2018-10-07T07:11:43.441Z,943.72
2018-10-07T07:12:43.354Z,943.88
2018-10-07T07:13:43.259Z,943.83
2018-10-07T07:14:43.173Z,943.84
2018-10-07T07:15:43.100Z,943.98
2018-10-07T07:16:42.999Z,943.90
2018-10-07T07:17:42.916Z,943.93
2018-10-07T07:18:42.823Z,943.96
2018-10-07T07:19:42.757Z,944.02
2018-10-07T07:20:42.663Z,944.07
2018-10-07T07:21:42.564Z,944.10
2018-10-07T07:22:42.471Z,944.12
2018-10-07T07:23:42.384Z,944.15
2018-10-07T07:24:42.299Z,944.20
2018-10-07T07:25:42.227Z,944.14
2018-10-07T07:26:42.127Z,944.15
2018-10-07T07:27:42.041Z,944.22
2018-10-07T07:28:41.951Z,944.19
2018-10-07T07:29:41.865Z,944.21
2018-10-07T07:30:41.793Z,944.25
2018-10-07T07:31:41.690Z,944.29
2018-10-07T07:32:41.603Z,944.35
2018-10-07T07:33:41.518Z,944.34
2018-10-07T07:34:41.428Z,944.35
2018-10-07T07:35:41.345Z,944.29
2018-10-07T07:36:41.335Z,944.30
2018-10-07T07:37:41.172Z,944.31
2018-10-07T07:38:41.087Z,944.27
2018-10-07T07:39:41.002Z,944.29
2018-10-07T07:40:40.932Z,944.28
2018-10-07T07:41:40.831Z,944.29
2018-10-07T07:42:40.743Z,944.25
2018-10-07T07:43:40.659Z,944.28
2018-10-07T07:44:40.571Z,944.29
2018-10-07T07:45:40.491Z,944.37
2018-10-07T07:46:40.424Z,944.41
2018-10-07T07:47:40.318Z,944.44
2018-10-07T07:48:40.237Z,944.41
2018-10-07T07:49:40.145Z,944.46
2018-10-07T07:50:40.464Z,944.48
2018-10-07T07:51:39.998Z,944.49
2018-10-07T07:52:39.891Z,944.46
2018-10-07T07:53:39.807Z,944.49
2018-10-07T07:54:39.725Z,944.55
2018-10-07T07:55:39.745Z,944.53
2018-10-07T07:56:39.571Z,944.60
2018-10-07T07:57:39.474Z,944.61
2018-10-07T07:58:39.389Z,944.61
2018-10-07T07:59:39.298Z,944.73
2018-10-07T08:00:39.220Z,944.86
2018-10-07T08:01:39.148Z,944.83
2018-10-07T08:02:39.154Z,944.78
2018-10-07T08:03:38.964Z,944.83
2018-10-07T08:04:38.878Z,944.88
2018-10-07T08:05:38.793Z,944.90
2018-10-07T08:06:38.730Z,944.88
2018-10-07T08:07:38.627Z,944.83
2018-10-07T08:08:38.570Z,944.80
2018-10-07T08:09:38.565Z,944.76
2018-10-07T08:10:38.372Z,944.82
2018-10-07T08:11:38.303Z,944.84
2018-10-07T08:12:38.200Z,944.85
2018-10-07T08:13:38.123Z,944.87
2018-10-07T08:14:38.039Z,944.92
2018-10-07T08:15:37.949Z,945.03
2018-10-07T08:16:37.981Z,945.01
2018-10-07T08:17:37.809Z,944.92
2018-10-07T08:18:37.695Z,944.76
2018-10-07T08:19:37.610Z,944.72
2018-10-07T08:20:37.523Z,944.73
2018-10-07T08:21:37.457Z,944.72
2018-10-07T08:22:37.354Z,944.73
2018-10-07T08:23:37.405Z,944.72
2018-10-07T08:24:37.185Z,944.74
2018-10-07T08:25:37.098Z,944.75
2018-10-07T08:26:37.034Z,944.77
2018-10-07T08:27:36.930Z,944.68
2018-10-07T08:28:36.842Z,944.71
2018-10-07T08:29:36.833Z,944.67
2018-10-07T08:30:36.769Z,944.68
2018-10-07T08:31:36.604Z,944.69
2018-10-07T08:32:36.501Z,944.68
2018-10-07T08:33:36.443Z,944.67
2018-10-07T08:34:36.330Z,944.67
2018-10-07T08:35:36.247Z,944.68
2018-10-07T08:36:36.175Z,944.63
2018-10-07T08:37:36.191Z,944.65
2018-10-07T08:38:35.990Z,944.67
2018-10-07T08:39:35.907Z,944.66
2018-10-07T08:40:35.820Z,944.70
2018-10-07T08:41:35.748Z,944.68
2018-10-07T08:42:35.649Z,944.61
2018-10-07T08:43:35.562Z,944.62
2018-10-07T08:44:35.577Z,944.59
2018-10-07T08:45:35.392Z,944.63
2018-10-07T08:46:35.325Z,944.68
2018-10-07T08:47:35.223Z,944.65
2018-10-07T08:48:35.152Z,944.64
2018-10-07T08:49:35.054Z,944.66
2018-10-07T08:50:34.965Z,944.66
2018-10-07T08:51:34.897Z,944.61
2018-10-07T08:52:34.799Z,944.63
2018-10-07T08:53:34.715Z,944.65
2018-10-07T08:54:34.627Z,944.60
2018-10-07T08:55:34.545Z,944.63
2018-10-07T08:56:34.653Z,944.61
2018-10-07T08:57:34.374Z,944.65
2018-10-07T08:58:34.291Z,944.66
2018-10-07T08:59:34.205Z,944.68
2018-10-07T09:00:34.121Z,944.69
2018-10-07T09:01:34.060Z,944.73
2018-10-07T09:02:33.952Z,944.75
2018-10-07T09:03:33.872Z,944.77
2018-10-07T09:04:33.780Z,944.81
2018-10-07T09:05:33.696Z,944.83
2018-10-07T09:06:33.629Z,944.90
2018-10-07T09:07:33.544Z,944.92
2018-10-07T09:08:33.447Z,944.91
2018-10-07T09:09:33.363Z,944.95
2018-10-07T09:10:33.280Z,945.02
2018-10-07T09:11:33.211Z,945.04
2018-10-07T09:12:33.118Z,945.04
2018-10-07T09:13:33.028Z,945.08
2018-10-07T09:14:32.962Z,945.10
2018-10-07T09:15:32.864Z,945.14
2018-10-07T09:16:32.792Z,945.13
2018-10-07T09:17:32.695Z,945.16
2018-10-07T09:18:32.614Z,945.14
2018-10-07T09:19:32.528Z,945.06
2018-10-07T09:20:32.454Z,945.03
2018-10-07T09:21:32.869Z,945.07
2018-10-07T09:22:32.279Z,945.05
2018-10-07T09:23:32.197Z,945.06
2018-10-07T09:24:32.114Z,945.07
2018-10-07T09:25:32.041Z,944.97
2018-10-07T09:26:31.949Z,944.98
2018-10-07T09:27:31.948Z,944.99
2018-10-07T09:28:31.778Z,945.01
2018-10-07T09:29:31.699Z,945.02
2018-10-07T09:30:31.614Z,944.95
2018-10-07T09:31:31.530Z,944.95
2018-10-07T09:32:31.522Z,945.03
2018-10-07T09:33:31.364Z,945.11
2018-10-07T09:34:31.301Z,945.26
2018-10-07T09:35:31.193Z,945.40
2018-10-07T09:36:31.116Z,945.23
2018-10-07T09:37:31.041Z,945.38
2018-10-07T09:38:31.058Z,945.41
2018-10-07T09:39:30.929Z,945.22
2018-10-07T09:40:30.776Z,945.11
2018-10-07T09:41:30.687Z,945.53
2018-10-07T09:42:30.621Z,945.10
2018-10-07T09:43:30.522Z,945.12
2018-10-07T09:44:30.435Z,945.06
2018-10-07T09:45:30.448Z,945.09
2018-10-07T09:46:30.289Z,945.43
2018-10-07T09:47:30.201Z,945.03
2018-10-07T09:48:30.098Z,945.35
2018-10-07T09:49:30.013Z,945.51
2018-10-07T09:50:29.927Z,945.06
2018-10-07T09:51:29.842Z,945.22
2018-10-07T09:52:29.883Z,945.53
2018-10-07T09:53:29.670Z,945.57
2018-10-07T09:54:29.592Z,945.60
2018-10-07T09:55:29.505Z,945.63
2018-10-07T09:56:29.421Z,945.79
2018-10-07T09:57:29.349Z,945.89
2018-10-07T09:58:29.246Z,945.91
2018-10-07T09:59:29.266Z,945.88
2018-10-07T10:00:29.077Z,945.69
2018-10-07T10:01:28.995Z,946.15
2018-10-07T10:02:28.925Z,946.11
2018-10-07T10:03:28.826Z,945.49
2018-10-07T10:04:28.783Z,945.89
2018-10-07T10:05:28.659Z,945.32
2018-10-07T10:06:28.682Z,946.80
2018-10-07T10:07:28.517Z,947.40
2018-10-07T10:08:28.402Z,947.89
2018-10-07T10:09:28.319Z,948.29
2018-10-07T10:10:28.236Z,948.53
2018-10-07T10:11:28.152Z,947.80
2018-10-07T10:12:28.082Z,945.56
2018-10-07T10:13:28.086Z,945.59
2018-10-07T10:14:27.897Z,945.62
2018-10-07T10:15:27.814Z,945.60
2018-10-07T10:16:27.730Z,945.58
2018-10-07T10:17:27.721Z,945.55
2018-10-07T10:18:27.565Z,945.57
2018-10-07T10:19:27.492Z,945.58
2018-10-07T10:20:27.397Z,945.57
2018-10-07T10:21:27.313Z,945.57
2018-10-07T10:22:27.244Z,945.60
2018-10-07T10:23:27.146Z,945.63
2018-10-07T10:24:27.060Z,945.59
2018-10-07T10:25:26.972Z,945.61
2018-10-07T10:26:26.889Z,945.71
2018-10-07T10:27:26.820Z,945.68
2018-10-07T10:28:26.717Z,945.70
2018-10-07T10:29:26.633Z,945.74
2018-10-07T10:30:26.547Z,945.77
2018-10-07T10:31:26.460Z,945.85
2018-10-07T10:32:26.394Z,945.94
2018-10-07T10:33:26.287Z,945.97
2018-10-07T10:34:26.202Z,945.93
2018-10-07T10:35:26.116Z,945.86
2018-10-07T10:36:26.031Z,945.82
2018-10-07T10:37:25.961Z,945.80
2018-10-07T10:38:25.860Z,945.80
2018-10-07T10:39:25.773Z,945.90
2018-10-07T10:40:25.685Z,946.08
2018-10-07T10:41:25.601Z,945.93
2018-10-07T10:42:25.529Z,945.80
2018-10-07T10:43:25.429Z,945.79
2018-10-07T10:44:25.349Z,945.74
2018-10-07T10:45:25.249Z,945.66
2018-10-07T10:46:25.169Z,945.76
2018-10-07T10:47:25.094Z,945.73
2018-10-07T10:48:24.989Z,945.78
2018-10-07T10:49:24.902Z,945.77
2018-10-07T10:50:24.836Z,945.80
2018-10-07T10:51:24.724Z,945.82
2018-10-07T10:52:24.658Z,945.80
2018-10-07T10:53:24.554Z,945.80
2018-10-07T10:54:24.468Z,945.82
2018-10-07T10:55:24.380Z,945.80
2018-10-07T10:56:24.288Z,945.82
2018-10-07T10:57:24.221Z,945.84
2018-10-07T10:58:24.113Z,945.78
2018-10-07T10:59:24.058Z,945.72
2018-10-07T11:00:23.941Z,945.81
2018-10-07T11:01:23.850Z,945.76
2018-10-07T11:02:23.796Z,945.80
2018-10-07T11:03:23.674Z,945.77
2018-10-07T11:04:23.659Z,945.81
2018-10-07T11:05:23.502Z,945.80
2018-10-07T11:06:23.407Z,945.82
2018-10-07T11:07:23.349Z,945.81
2018-10-07T11:08:23.337Z,945.84
2018-10-07T11:09:23.142Z,945.80
2018-10-07T11:10:23.052Z,945.81
2018-10-07T11:11:22.965Z,945.83
2018-10-07T11:12:22.894Z,945.85
2018-10-07T11:13:22.788Z,945.83
2018-10-07T11:14:22.699Z,945.80
2018-10-07T11:15:22.751Z,945.89
2018-10-07T11:16:22.521Z,945.87
2018-10-07T11:17:22.435Z,945.90
2018-10-07T11:18:22.359Z,945.89
2018-10-07T11:19:22.269Z,945.93
2018-10-07T11:20:22.161Z,945.90
2018-10-07T11:21:22.074Z,945.85
2018-10-07T11:22:22.105Z,945.90
2018-10-07T11:23:21.912Z,945.92
2018-10-07T11:24:21.805Z,945.97
2018-10-07T11:25:21.715Z,945.98
2018-10-07T11:26:21.629Z,946.01
2018-10-07T11:27:21.540Z,946.04
2018-10-07T11:28:21.459Z,946.06
2018-10-07T11:29:21.456Z,946.11
2018-10-07T11:30:21.266Z,946.11
2018-10-07T11:31:21.175Z,946.11
2018-10-07T11:32:21.093Z,946.09
2018-10-07T11:33:21.011Z,946.09
2018-10-07T11:34:20.903Z,946.11
2018-10-07T11:35:20.815Z,946.12
2018-10-07T11:36:20.827Z,946.11
2018-10-07T11:37:20.631Z,946.16
2018-10-07T11:38:20.559Z,946.14
2018-10-07T11:39:20.455Z,946.18
2018-10-07T11:40:20.359Z,946.13
2018-10-07T11:41:20.269Z,946.16
2018-10-07T11:42:20.183Z,946.20
2018-10-07T11:43:20.224Z,946.20
2018-10-07T11:44:19.998Z,946.20
2018-10-07T11:45:19.911Z,946.22
2018-10-07T11:46:19.817Z,946.16
2018-10-07T11:47:19.728Z,946.23
2018-10-07T11:48:19.654Z,946.18
2018-10-07T11:49:19.546Z,946.24
2018-10-07T11:50:19.562Z,946.20
2018-10-07T11:51:19.366Z,946.20
2018-10-07T11:52:19.276Z,946.18
2018-10-07T11:53:19.201Z,946.23
2018-10-07T11:54:19.102Z,946.20
2018-10-07T11:55:19.003Z,946.23
2018-10-07T11:56:18.906Z,946.25
2018-10-07T11:57:18.921Z,946.31
2018-10-07T11:58:18.747Z,946.33
2018-10-07T11:59:18.636Z,946.31
2018-10-07T12:00:18.544Z,946.31
2018-10-07T12:01:18.452Z,946.32
2018-10-07T12:02:18.480Z,946.34
2018-10-07T12:03:18.290Z,946.31
2018-10-07T12:04:18.186Z,946.33
2018-10-07T12:05:18.088Z,946.28
2018-10-07T12:06:17.994Z,946.26
2018-10-07T12:07:17.906Z,946.26
2018-10-07T12:08:17.826Z,946.32
2018-10-07T12:09:17.720Z,946.32
2018-10-07T12:10:17.683Z,946.34
2018-10-07T12:11:17.540Z,946.32
2018-10-07T12:12:17.443Z,946.31
2018-10-07T12:13:17.368Z,946.29
2018-10-07T12:14:17.261Z,946.34
2018-10-07T12:15:17.167Z,946.29
2018-10-07T12:16:17.127Z,946.30
2018-10-07T12:17:16.986Z,946.29
2018-10-07T12:18:16.907Z,946.35
2018-10-07T12:19:16.805Z,946.36
2018-10-07T12:20:16.708Z,946.36
2018-10-07T12:21:16.616Z,946.37
2018-10-07T12:22:16.524Z,946.41
2018-10-07T12:23:16.449Z,946.39
2018-10-07T12:24:16.347Z,946.45
2018-10-07T12:25:16.250Z,946.47
2018-10-07T12:26:16.154Z,946.47
2018-10-07T12:27:16.067Z,946.48